Avery, Idaho
Current Conditions -  °F | °C
As of 4:53 PM on Tuesday 27 Jan 2015 (Local Time) from KMLP Reporting Station
Scattered Clouds Scattered Clouds  
Wind Chill:   Ceiling: Unl
Heat Index:   Visibility: 10mi
Dew Point: -3°   Wind: 6mph
Humidity: 67%   Direction: NA
Pressure: 30"   Gusts: NA
Location:  47.25°N, 115.81°W
Report Text: KMLP 280053Z AUTO VRB05KT 10SM SCT110 02/M03 A3000 RMK AO2 SLP111 T00221033
Loading
Personal Weather Stations






























Interactive Weather Map New forecast layout! Learn more

10-Day Weather Forecast

Advertisements
Track Severe Weather on mobile